createdAt,value
2023-04-28T00:01:22.421Z,11.70
2023-04-28T00:04:29.635Z,11.70
2023-04-28T00:07:31.635Z,11.70
2023-04-28T00:10:35.499Z,11.80
2023-04-28T00:13:37.984Z,11.80
2023-04-28T00:16:41.570Z,11.90
2023-04-28T00:19:43.737Z,11.80
2023-04-28T00:22:46.388Z,11.80
2023-04-28T00:25:52.528Z,11.70
2023-04-28T00:28:54.494Z,11.70
2023-04-28T00:31:56.633Z,11.70
2023-04-28T00:34:58.506Z,11.70
2023-04-28T00:38:00.451Z,11.70
2023-04-28T00:41:02.577Z,11.70
2023-04-28T00:44:04.591Z,11.70
2023-04-28T00:47:06.461Z,11.60
2023-04-28T00:50:10.448Z,11.60
2023-04-28T00:53:16.092Z,11.50
2023-04-28T00:56:18.095Z,11.50
2023-04-28T00:59:20.819Z,11.60
2023-04-28T01:02:22.948Z,11.50
2023-04-28T01:05:27.308Z,11.50
2023-04-28T01:08:34.768Z,11.50
2023-04-28T01:11:38.353Z,11.50
2023-04-28T01:14:40.616Z,11.50
2023-04-28T01:17:42.601Z,11.30
2023-04-28T01:20:44.377Z,11.20
2023-04-28T01:23:47.008Z,11.20
2023-04-28T01:26:48.746Z,11.20
2023-04-28T01:29:51.764Z,11.20
2023-04-28T01:32:53.699Z,11.20
2023-04-28T01:35:59.080Z,11.30
2023-04-28T01:39:01.078Z,11.20
2023-04-28T01:42:07.707Z,11.20
2023-04-28T01:45:10.396Z,11.20
2023-04-28T01:48:13.016Z,11.20
2023-04-28T01:51:14.810Z,11.20
2023-04-28T01:54:17.071Z,11.10
2023-04-28T01:57:19.555Z,11.00
2023-04-28T02:00:23.933Z,11.00
2023-04-28T02:03:26.279Z,11.10
2023-04-28T02:06:28.428Z,11.10
2023-04-28T02:09:30.430Z,11.00
2023-04-28T02:12:33.000Z,11.00
2023-04-28T02:15:35.399Z,11.10
2023-04-28T02:18:38.210Z,11.20
2023-04-28T02:21:41.647Z,11.20
2023-04-28T02:24:44.078Z,11.10
2023-04-28T02:27:46.127Z,11.00
2023-04-28T02:30:51.046Z,11.10
2023-04-28T02:33:53.169Z,11.10
2023-04-28T02:36:56.633Z,11.10
2023-04-28T02:39:58.394Z,11.00
2023-04-28T02:43:02.926Z,11.00
2023-04-28T02:46:05.211Z,11.00
2023-04-28T02:49:11.641Z,11.00
2023-04-28T02:52:13.495Z,11.00
2023-04-28T02:55:23.680Z,11.00
2023-04-28T02:58:25.642Z,11.00
2023-04-28T03:01:33.615Z,11.00
2023-04-28T03:04:35.844Z,10.90
2023-04-28T03:07:39.564Z,10.80
2023-04-28T03:10:41.691Z,10.80
2023-04-28T03:13:43.534Z,10.80
2023-04-28T03:16:45.517Z,10.90
2023-04-28T03:19:47.378Z,11.00
2023-04-28T03:22:49.468Z,11.00
2023-04-28T03:25:51.396Z,10.90
2023-04-28T03:28:53.676Z,11.00
2023-04-28T03:32:00.143Z,11.00
2023-04-28T03:35:02.148Z,11.00
2023-04-28T03:38:07.194Z,10.90
2023-04-28T03:41:09.007Z,11.00
2023-04-28T03:44:10.787Z,11.00
2023-04-28T03:47:12.698Z,11.00
2023-04-28T03:50:14.677Z,11.00
2023-04-28T03:53:17.320Z,11.00
2023-04-28T03:56:19.295Z,11.00
2023-04-28T03:59:21.208Z,10.90
2023-04-28T04:02:23.076Z,10.90
2023-04-28T04:05:25.221Z,10.70
2023-04-28T04:08:27.174Z,10.80
2023-04-28T04:11:28.967Z,10.80
2023-04-28T04:14:31.019Z,10.80
2023-04-28T04:17:33.216Z,10.80
2023-04-28T04:20:35.093Z,10.90
2023-04-28T04:23:36.859Z,11.00
2023-04-28T04:26:39.480Z,11.00
2023-04-28T04:29:42.175Z,11.00
2023-04-28T04:32:44.085Z,11.00
2023-04-28T04:35:46.102Z,10.90
2023-04-28T04:38:49.519Z,11.00
2023-04-28T04:41:51.287Z,10.90
2023-04-28T04:44:57.849Z,11.00
2023-04-28T04:47:59.722Z,11.10
2023-04-28T04:51:02.472Z,11.20
2023-04-28T04:54:04.493Z,11.10
2023-04-28T04:57:07.144Z,11.00
2023-04-28T05:00:09.789Z,11.00
2023-04-28T05:03:19.106Z,11.30
2023-04-28T05:06:21.450Z,11.40
2023-04-28T05:09:25.698Z,11.40
2023-04-28T05:12:27.521Z,11.40
2023-04-28T05:15:29.879Z,11.40
2023-04-28T05:18:32.267Z,11.40
2023-04-28T05:21:35.618Z,11.40
2023-04-28T05:24:37.472Z,11.40
2023-04-28T05:27:41.066Z,11.40
2023-04-28T05:30:44.930Z,11.40
2023-04-28T05:33:46.945Z,11.50
2023-04-28T05:36:48.932Z,11.50
2023-04-28T05:39:51.440Z,11.50
2023-04-28T05:42:53.573Z,11.60
2023-04-28T05:45:55.778Z,11.70
2023-04-28T05:48:57.959Z,11.70
2023-04-28T05:52:04.372Z,11.70
2023-04-28T05:55:06.553Z,11.80
2023-04-28T05:58:09.058Z,11.80
2023-04-28T06:01:12.048Z,11.90
2023-04-28T06:04:16.169Z,11.90
2023-04-28T06:07:18.387Z,11.90
2023-04-28T06:10:21.956Z,12.00
2023-04-28T06:13:23.745Z,12.00
2023-04-28T06:16:27.195Z,12.00
2023-04-28T06:19:28.873Z,12.00
2023-04-28T06:22:30.854Z,12.10
2023-04-28T06:25:32.801Z,12.10
2023-04-28T06:28:34.754Z,12.20
2023-04-28T06:31:36.624Z,12.10
2023-04-28T06:34:38.404Z,12.10
2023-04-28T06:37:40.197Z,12.10
2023-04-28T06:40:43.675Z,12.20
2023-04-28T06:43:45.474Z,12.20
2023-04-28T06:46:48.906Z,12.30
2023-04-28T06:49:50.840Z,12.30
2023-04-28T06:52:52.703Z,12.40
2023-04-28T06:55:54.591Z,12.50
2023-04-28T06:58:58.886Z,12.50
2023-04-28T07:02:02.008Z,12.60
2023-04-28T07:05:05.121Z,12.60
2023-04-28T07:08:07.141Z,12.70
2023-04-28T07:11:10.540Z,12.80
2023-04-28T07:14:12.316Z,12.80
2023-04-28T07:17:14.318Z,12.80
2023-04-28T07:20:16.334Z,12.80
2023-04-28T07:23:19.065Z,12.90
2023-04-28T07:26:21.569Z,13.00
2023-04-28T07:29:24.718Z,13.00
2023-04-28T07:32:26.598Z,13.00
2023-04-28T07:35:29.192Z,13.10
2023-04-28T07:38:31.129Z,13.20
2023-04-28T07:41:39.749Z,13.20
2023-04-28T07:44:42.354Z,13.30
2023-04-28T07:47:44.337Z,13.30
2023-04-28T07:50:46.668Z,13.30
2023-04-28T07:53:51.563Z,13.30
2023-04-28T07:56:53.404Z,13.40
2023-04-28T07:59:56.521Z,13.40
2023-04-28T08:02:59.380Z,13.40
2023-04-28T08:06:02.455Z,13.40
2023-04-28T08:09:06.173Z,13.40
2023-04-28T08:12:09.052Z,13.50
2023-04-28T08:15:11.348Z,13.50
2023-04-28T08:18:13.284Z,13.60
2023-04-28T08:21:15.092Z,13.60
2023-04-28T08:24:17.986Z,13.60
2023-04-28T08:27:20.088Z,13.60
2023-04-28T08:30:22.092Z,13.70
2023-04-28T08:33:24.774Z,13.80
2023-04-28T08:36:31.817Z,13.90
2023-04-28T08:39:35.217Z,14.00
2023-04-28T08:42:40.874Z,14.10
2023-04-28T08:45:44.883Z,14.10
2023-04-28T08:48:46.956Z,14.20
2023-04-28T08:51:59.077Z,14.30
2023-04-28T08:55:10.368Z,14.30
2023-04-28T08:58:12.693Z,14.30
2023-04-28T09:01:14.713Z,14.30
2023-04-28T09:04:18.345Z,14.40
2023-04-28T09:07:20.837Z,14.40
2023-04-28T09:10:25.084Z,14.50
2023-04-28T09:13:31.685Z,14.60
2023-04-28T09:16:41.739Z,14.60
2023-04-28T09:19:46.151Z,14.80
2023-04-28T09:22:48.115Z,14.80
2023-04-28T09:26:07.679Z,15.00
2023-04-28T09:29:13.841Z,15.20
2023-04-28T09:32:25.188Z,15.40
2023-04-28T09:35:48.306Z,15.50
2023-04-28T09:38:50.913Z,15.70
2023-04-28T09:41:53.074Z,15.70
2023-04-28T09:44:54.948Z,15.70
2023-04-28T09:48:10.905Z,15.60
2023-04-28T09:51:21.289Z,15.60
2023-04-28T09:54:24.400Z,15.60
2023-04-28T09:57:29.518Z,15.60
2023-04-28T10:00:34.289Z,15.60
2023-04-28T10:03:37.730Z,15.60
2023-04-28T10:06:40.403Z,15.60
2023-04-28T10:09:50.694Z,15.70
2023-04-28T10:12:52.802Z,15.80
2023-04-28T10:15:55.584Z,15.90
2023-04-28T10:18:58.101Z,16.00
2023-04-28T10:22:13.666Z,15.90
2023-04-28T10:25:27.007Z,15.90
2023-04-28T10:28:29.263Z,15.90
2023-04-28T10:31:31.051Z,15.90
2023-04-28T10:34:33.950Z,15.90
2023-04-28T10:38:05.798Z,15.90
2023-04-28T10:41:34.029Z,16.00
2023-04-28T10:44:36.158Z,16.20
2023-04-28T10:48:07.994Z,16.30
2023-04-28T10:51:16.420Z,16.40
2023-04-28T10:54:20.115Z,16.40
2023-04-28T10:57:22.939Z,16.50
2023-04-28T11:00:31.839Z,16.60
2023-04-28T11:03:49.112Z,16.70
2023-04-28T11:07:13.359Z,16.80
2023-04-28T11:10:15.381Z,17.10
2023-04-28T11:13:34.809Z,17.20
2023-04-28T11:16:54.722Z,17.30
2023-04-28T11:19:59.778Z,17.20
2023-04-28T11:23:03.832Z,17.20
2023-04-28T11:26:06.032Z,17.20
2023-04-28T11:29:08.756Z,17.30
2023-04-28T11:32:11.211Z,17.40
2023-04-28T11:35:13.122Z,17.40
2023-04-28T11:38:17.255Z,17.50
2023-04-28T11:41:19.378Z,17.70
2023-04-28T11:44:23.200Z,17.80
2023-04-28T11:47:34.701Z,18.00
2023-04-28T11:50:37.492Z,18.00
2023-04-28T11:53:46.295Z,18.00
2023-04-28T11:56:48.988Z,17.90
2023-04-28T11:59:51.377Z,17.80
2023-04-28T12:02:53.823Z,17.80
2023-04-28T12:05:57.990Z,17.80
2023-04-28T12:09:05.856Z,17.80
2023-04-28T12:12:10.648Z,18.00
2023-04-28T12:15:13.490Z,18.10
2023-04-28T12:18:19.504Z,18.20
2023-04-28T12:21:22.154Z,18.40
2023-04-28T12:24:26.129Z,18.40
2023-04-28T12:27:29.143Z,18.30
2023-04-28T12:30:33.317Z,18.30
2023-04-28T12:33:39.522Z,18.40
2023-04-28T12:36:41.442Z,18.50
2023-04-28T12:39:43.455Z,18.50
2023-04-28T12:42:45.502Z,18.50
2023-04-28T12:45:47.785Z,18.60
2023-04-28T12:48:50.044Z,18.60
2023-04-28T12:51:51.845Z,18.60
2023-04-28T12:54:53.577Z,18.50
2023-04-28T12:57:55.346Z,18.40
2023-04-28T13:00:57.078Z,18.40
2023-04-28T13:03:59.636Z,18.40
2023-04-28T13:07:01.723Z,18.40
2023-04-28T13:10:03.773Z,18.50
2023-04-28T13:13:05.784Z,18.50
2023-04-28T13:16:10.717Z,18.50
2023-04-28T13:19:14.621Z,18.50
2023-04-28T13:22:17.610Z,18.50
2023-04-28T13:25:19.369Z,18.40
2023-04-28T13:28:21.148Z,18.40
2023-04-28T13:31:22.984Z,18.50
2023-04-28T13:34:24.976Z,18.50
2023-04-28T13:37:27.015Z,18.50
2023-04-28T13:40:29.232Z,18.60
2023-04-28T13:43:34.041Z,18.50
2023-04-28T13:46:37.560Z,18.40
2023-04-28T13:49:40.064Z,18.30
2023-04-28T13:52:42.689Z,18.30
2023-04-28T13:55:45.538Z,18.30
2023-04-28T13:58:48.919Z,18.20
2023-04-28T14:01:53.160Z,18.10
2023-04-28T14:04:55.969Z,18.10
2023-04-28T14:07:57.931Z,18.00
2023-04-28T14:11:04.636Z,17.90
2023-04-28T14:14:06.452Z,17.90
2023-04-28T14:17:09.535Z,17.90
2023-04-28T14:20:11.827Z,17.90
2023-04-28T14:23:15.633Z,17.80
2023-04-28T14:26:17.595Z,17.70
2023-04-28T14:29:20.994Z,17.70
2023-04-28T14:32:22.666Z,17.60
2023-04-28T14:35:24.955Z,17.60
2023-04-28T14:38:27.797Z,17.50
2023-04-28T14:41:29.568Z,17.40
2023-04-28T14:44:31.597Z,17.30
2023-04-28T14:47:33.623Z,17.30
2023-04-28T14:50:35.371Z,17.30
2023-04-28T14:53:42.334Z,17.30
2023-04-28T14:56:44.644Z,17.20
2023-04-28T14:59:48.370Z,17.30
2023-04-28T15:02:53.713Z,17.30
2023-04-28T15:05:55.639Z,17.30
2023-04-28T15:08:58.381Z,17.30
2023-04-28T15:12:00.321Z,17.30
2023-04-28T15:15:02.119Z,17.10
2023-04-28T15:18:05.082Z,17.00
2023-04-28T15:21:08.564Z,16.90
2023-04-28T15:24:11.863Z,16.80
2023-04-28T15:27:13.729Z,16.70
2023-04-28T15:30:16.655Z,16.70
2023-04-28T15:33:18.693Z,16.70
2023-04-28T15:36:20.994Z,16.60
2023-04-28T15:39:23.903Z,16.60
2023-04-28T15:42:26.875Z,16.60
2023-04-28T15:45:28.676Z,16.60
2023-04-28T15:48:32.153Z,16.60
2023-04-28T15:51:33.818Z,16.60
2023-04-28T15:54:36.498Z,16.50
2023-04-28T15:57:38.993Z,16.60
2023-04-28T16:00:42.264Z,16.50
2023-04-28T16:03:48.437Z,16.50
2023-04-28T16:06:52.888Z,16.40
2023-04-28T16:09:54.926Z,16.40
2023-04-28T16:12:57.449Z,16.30
2023-04-28T16:15:59.841Z,16.30
2023-04-28T16:19:02.489Z,16.30
2023-04-28T16:22:04.280Z,16.40
2023-04-28T16:25:07.579Z,16.40
2023-04-28T16:28:09.549Z,16.40
2023-04-28T16:31:11.723Z,16.30
2023-04-28T16:34:13.932Z,16.30
2023-04-28T16:37:23.464Z,16.30
2023-04-28T16:40:25.473Z,16.30
2023-04-28T16:43:27.500Z,16.30
2023-04-28T16:46:29.927Z,16.20
2023-04-28T16:49:31.790Z,16.20
2023-04-28T16:52:33.716Z,16.20
2023-04-28T16:55:38.616Z,16.20
2023-04-28T16:58:40.826Z,16.20
2023-04-28T17:01:43.396Z,16.20
2023-04-28T17:04:46.012Z,16.20
2023-04-28T17:07:48.662Z,16.20
2023-04-28T17:10:50.777Z,16.20
2023-04-28T17:13:52.543Z,16.20
2023-04-28T17:16:54.926Z,16.20
2023-04-28T17:19:59.442Z,16.10
2023-04-28T17:23:01.253Z,16.10
2023-04-28T17:26:04.965Z,16.10
2023-04-28T17:29:06.841Z,16.10
2023-04-28T17:32:08.654Z,16.10
2023-04-28T17:35:10.659Z,16.10
2023-04-28T17:38:17.208Z,16.00
2023-04-28T17:41:19.850Z,16.00
2023-04-28T17:44:27.949Z,16.00
2023-04-28T17:47:29.911Z,16.00
2023-04-28T17:50:31.711Z,16.10
2023-04-28T17:53:33.473Z,16.00
2023-04-28T17:56:38.965Z,16.00
2023-04-28T17:59:42.598Z,15.90
2023-04-28T18:02:44.494Z,16.00
2023-04-28T18:05:48.039Z,15.90
2023-04-28T18:08:50.045Z,16.00
2023-04-28T18:11:52.177Z,15.90
2023-04-28T18:14:55.129Z,15.90
2023-04-28T18:17:57.729Z,15.90
2023-04-28T18:21:00.852Z,15.80
2023-04-28T18:24:02.931Z,15.80
2023-04-28T18:27:05.529Z,15.70
2023-04-28T18:30:08.166Z,15.70
2023-04-28T18:33:10.358Z,15.60
2023-04-28T18:36:12.374Z,15.60
2023-04-28T18:39:15.265Z,15.50
2023-04-28T18:42:17.040Z,15.40
2023-04-28T18:45:19.072Z,15.40
2023-04-28T18:48:22.062Z,15.30
2023-04-28T18:51:25.726Z,15.30
2023-04-28T18:54:28.886Z,15.30
2023-04-28T18:57:33.325Z,15.20
2023-04-28T19:00:37.019Z,15.20
2023-04-28T19:03:39.597Z,15.20
2023-04-28T19:06:41.697Z,15.20
2023-04-28T19:09:53.502Z,15.20
2023-04-28T19:12:56.533Z,15.10
2023-04-28T19:15:58.366Z,15.10
2023-04-28T19:19:00.244Z,15.10
2023-04-28T19:22:03.189Z,15.10
2023-04-28T19:25:06.946Z,15.10
2023-04-28T19:28:10.933Z,15.00
2023-04-28T19:31:12.908Z,15.00
2023-04-28T19:34:16.624Z,15.00
2023-04-28T19:37:19.234Z,14.90
2023-04-28T19:40:22.127Z,14.90
2023-04-28T19:43:24.357Z,14.90
2023-04-28T19:46:26.465Z,15.00
2023-04-28T19:49:28.501Z,14.90
2023-04-28T19:52:30.329Z,14.90
2023-04-28T19:55:32.159Z,14.80
2023-04-28T19:58:33.989Z,14.70
2023-04-28T20:01:35.767Z,14.70
2023-04-28T20:04:40.645Z,14.60
2023-04-28T20:07:42.879Z,14.60
2023-04-28T20:10:45.957Z,14.60
2023-04-28T20:13:48.634Z,14.50
2023-04-28T20:16:52.250Z,14.50
2023-04-28T20:19:53.989Z,14.40
2023-04-28T20:22:56.010Z,14.40
2023-04-28T20:25:59.104Z,14.40
2023-04-28T20:29:01.748Z,14.40
2023-04-28T20:32:04.737Z,14.30
2023-04-28T20:35:09.034Z,14.30
2023-04-28T20:38:10.867Z,14.20
2023-04-28T20:41:15.156Z,14.30
2023-04-28T20:44:17.040Z,14.30
2023-04-28T20:47:21.313Z,14.30
2023-04-28T20:50:23.134Z,14.20
2023-04-28T20:53:25.028Z,14.10
2023-04-28T20:56:27.398Z,14.10
2023-04-28T20:59:32.452Z,14.20
2023-04-28T21:02:36.265Z,14.20
2023-04-28T21:05:44.160Z,14.10
2023-04-28T21:08:46.130Z,14.10
2023-04-28T21:11:48.114Z,14.10
2023-04-28T21:14:49.867Z,14.10
2023-04-28T21:17:51.756Z,14.00
2023-04-28T21:20:54.641Z,14.00
2023-04-28T21:23:56.474Z,13.90
2023-04-28T21:26:59.616Z,13.90
2023-04-28T21:30:01.631Z,13.80
2023-04-28T21:33:03.564Z,13.80
2023-04-28T21:36:07.890Z,13.80
2023-04-28T21:39:10.482Z,13.80
2023-04-28T21:42:13.981Z,13.80
2023-04-28T21:45:15.666Z,13.80
2023-04-28T21:48:17.576Z,13.70
2023-04-28T21:51:19.300Z,13.70
2023-04-28T21:54:21.333Z,13.70
2023-04-28T21:57:23.330Z,13.70
2023-04-28T22:00:26.070Z,13.70
2023-04-28T22:03:36.410Z,13.70
2023-04-28T22:06:38.316Z,13.70
2023-04-28T22:09:40.103Z,13.70
2023-04-28T22:12:46.685Z,13.70
2023-04-28T22:15:48.655Z,13.60
2023-04-28T22:18:55.237Z,13.60
2023-04-28T22:21:57.877Z,13.60
2023-04-28T22:25:00.265Z,13.60
2023-04-28T22:28:02.065Z,13.60
2023-04-28T22:31:04.382Z,13.60
2023-04-28T22:34:09.868Z,13.40
2023-04-28T22:37:12.766Z,13.40
2023-04-28T22:40:14.898Z,13.40
2023-04-28T22:43:17.569Z,13.40
2023-04-28T22:46:19.423Z,13.40
2023-04-28T22:49:25.723Z,13.40
2023-04-28T22:52:27.616Z,13.50
2023-04-28T22:55:29.664Z,13.50
2023-04-28T22:58:31.380Z,13.40
2023-04-28T23:01:35.442Z,13.40
2023-04-28T23:04:39.972Z,13.40
2023-04-28T23:07:44.124Z,13.40
2023-04-28T23:10:46.417Z,13.40
2023-04-28T23:13:48.485Z,13.30
2023-04-28T23:16:50.512Z,13.30
2023-04-28T23:19:52.501Z,13.20
2023-04-28T23:22:56.691Z,13.20
2023-04-28T23:25:59.558Z,13.10
2023-04-28T23:29:01.334Z,13.10
2023-04-28T23:32:04.053Z,13.10
2023-04-28T23:35:06.764Z,13.10
2023-04-28T23:38:09.004Z,13.10
2023-04-28T23:41:10.869Z,13.00
2023-04-28T23:44:13.026Z,13.00
2023-04-28T23:47:14.895Z,13.00
2023-04-28T23:50:16.986Z,12.90
2023-04-28T23:53:19.016Z,13.00
2023-04-28T23:56:25.646Z,13.00
2023-04-28T23:59:27.512Z,12.90
